sensor_id;sensor_type;location;lat;lon;timestamp;P1;durP1;ratioP1;P2;durP2;ratioP2
59145;SDS011;44928;53.074;6.646;2024-01-30T00:01:20;20.15;;;12.50;;
59145;SDS011;44928;53.074;6.646;2024-01-30T00:03:46;20.52;;;12.98;;
59145;SDS011;44928;53.074;6.646;2024-01-30T00:06:11;20.63;;;13.15;;
59145;SDS011;44928;53.074;6.646;2024-01-30T00:08:37;20.02;;;13.55;;
59145;SDS011;44928;53.074;6.646;2024-01-30T00:11:03;19.75;;;12.75;;
59145;SDS011;44928;53.074;6.646;2024-01-30T00:13:29;20.33;;;12.93;;
59145;SDS011;44928;53.074;6.646;2024-01-30T00:15:55;18.92;;;13.38;;
59145;SDS011;44928;53.074;6.646;2024-01-30T00:18:20;19.75;;;13.05;;
59145;SDS011;44928;53.074;6.646;2024-01-30T00:20:46;19.98;;;12.75;;
59145;SDS011;44928;53.074;6.646;2024-01-30T00:23:12;23.30;;;14.40;;
59145;SDS011;44928;53.074;6.646;2024-01-30T00:25:38;18.63;;;12.40;;
59145;SDS011;44928;53.074;6.646;2024-01-30T00:28:04;19.77;;;13.65;;
59145;SDS011;44928;53.074;6.646;2024-01-30T00:30:30;20.98;;;13.93;;
59145;SDS011;44928;53.074;6.646;2024-01-30T00:32:56;22.15;;;14.32;;
59145;SDS011;44928;53.074;6.646;2024-01-30T00:35:21;19.15;;;13.65;;
59145;SDS011;44928;53.074;6.646;2024-01-30T00:37:48;18.60;;;12.82;;
59145;SDS011;44928;53.074;6.646;2024-01-30T00:40:14;19.77;;;13.50;;
59145;SDS011;44928;53.074;6.646;2024-01-30T00:42:44;19.88;;;13.13;;
59145;SDS011;44928;53.074;6.646;2024-01-30T00:45:16;19.20;;;13.20;;
59145;SDS011;44928;53.074;6.646;2024-01-30T00:47:42;19.90;;;12.73;;
59145;SDS011;44928;53.074;6.646;2024-01-30T00:50:08;19.58;;;12.65;;
59145;SDS011;44928;53.074;6.646;2024-01-30T00:52:35;18.95;;;12.35;;
59145;SDS011;44928;53.074;6.646;2024-01-30T00:55:01;19.92;;;13.02;;
59145;SDS011;44928;53.074;6.646;2024-01-30T00:57:27;19.38;;;12.45;;
59145;SDS011;44928;53.074;6.646;2024-01-30T00:59:54;17.38;;;12.07;;
59145;SDS011;44928;53.074;6.646;2024-01-30T01:02:20;20.00;;;12.93;;
59145;SDS011;44928;53.074;6.646;2024-01-30T01:04:45;19.15;;;12.00;;
59145;SDS011;44928;53.074;6.646;2024-01-30T01:07:11;18.98;;;12.02;;
59145;SDS011;44928;53.074;6.646;2024-01-30T01:09:37;20.27;;;12.65;;
59145;SDS011;44928;53.074;6.646;2024-01-30T01:12:03;21.27;;;13.63;;
59145;SDS011;44928;53.074;6.646;2024-01-30T01:14:29;17.38;;;11.93;;
59145;SDS011;44928;53.074;6.646;2024-01-30T01:16:55;20.40;;;11.90;;
59145;SDS011;44928;53.074;6.646;2024-01-30T01:19:21;19.23;;;11.98;;
59145;SDS011;44928;53.074;6.646;2024-01-30T01:21:47;18.65;;;12.35;;
59145;SDS011;44928;53.074;6.646;2024-01-30T01:24:13;20.42;;;12.23;;
59145;SDS011;44928;53.074;6.646;2024-01-30T01:26:39;21.92;;;13.38;;
59145;SDS011;44928;53.074;6.646;2024-01-30T01:29:08;19.10;;;12.73;;
59145;SDS011;44928;53.074;6.646;2024-01-30T01:31:37;18.80;;;13.07;;
59145;SDS011;44928;53.074;6.646;2024-01-30T01:34:12;21.63;;;13.63;;
59145;SDS011;44928;53.074;6.646;2024-01-30T01:36:39;19.40;;;12.65;;
59145;SDS011;44928;53.074;6.646;2024-01-30T01:39:05;20.05;;;13.35;;
59145;SDS011;44928;53.074;6.646;2024-01-30T01:41:31;18.02;;;12.77;;
59145;SDS011;44928;53.074;6.646;2024-01-30T01:43:57;20.50;;;13.02;;
59145;SDS011;44928;53.074;6.646;2024-01-30T01:46:26;21.42;;;12.43;;
59145;SDS011;44928;53.074;6.646;2024-01-30T01:48:52;19.58;;;13.20;;
59145;SDS011;44928;53.074;6.646;2024-01-30T01:51:20;22.92;;;13.77;;
59145;SDS011;44928;53.074;6.646;2024-01-30T01:53:47;19.73;;;12.65;;
59145;SDS011;44928;53.074;6.646;2024-01-30T01:56:13;19.95;;;13.00;;
59145;SDS011;44928;53.074;6.646;2024-01-30T01:58:39;19.35;;;12.07;;
59145;SDS011;44928;53.074;6.646;2024-01-30T02:01:06;18.17;;;12.43;;
59145;SDS011;44928;53.074;6.646;2024-01-30T02:03:33;16.75;;;11.52;;
59145;SDS011;44928;53.074;6.646;2024-01-30T02:05:59;19.23;;;12.18;;
59145;SDS011;44928;53.074;6.646;2024-01-30T02:08:27;20.52;;;12.82;;
59145;SDS011;44928;53.074;6.646;2024-01-30T02:10:53;20.02;;;12.27;;
59145;SDS011;44928;53.074;6.646;2024-01-30T02:13:20;19.42;;;12.77;;
59145;SDS011;44928;53.074;6.646;2024-01-30T02:15:51;19.30;;;11.88;;
59145;SDS011;44928;53.074;6.646;2024-01-30T02:18:17;19.45;;;13.02;;
59145;SDS011;44928;53.074;6.646;2024-01-30T02:20:43;19.75;;;12.70;;
59145;SDS011;44928;53.074;6.646;2024-01-30T02:23:10;19.10;;;12.02;;
59145;SDS011;44928;53.074;6.646;2024-01-30T02:25:40;18.80;;;12.45;;
59145;SDS011;44928;53.074;6.646;2024-01-30T02:28:12;20.65;;;12.82;;
59145;SDS011;44928;53.074;6.646;2024-01-30T02:30:45;20.50;;;12.02;;
59145;SDS011;44928;53.074;6.646;2024-01-30T02:33:12;19.63;;;12.15;;
59145;SDS011;44928;53.074;6.646;2024-01-30T02:35:38;18.73;;;12.63;;
59145;SDS011;44928;53.074;6.646;2024-01-30T02:38:04;15.82;;;11.30;;
59145;SDS011;44928;53.074;6.646;2024-01-30T02:40:30;18.63;;;12.02;;
59145;SDS011;44928;53.074;6.646;2024-01-30T02:42:57;17.77;;;11.98;;
59145;SDS011;44928;53.074;6.646;2024-01-30T02:45:24;17.40;;;11.88;;
59145;SDS011;44928;53.074;6.646;2024-01-30T02:47:50;19.50;;;12.07;;
59145;SDS011;44928;53.074;6.646;2024-01-30T02:50:16;16.40;;;11.38;;
59145;SDS011;44928;53.074;6.646;2024-01-30T02:52:42;17.67;;;11.48;;
59145;SDS011;44928;53.074;6.646;2024-01-30T02:55:10;16.60;;;10.95;;
59145;SDS011;44928;53.074;6.646;2024-01-30T02:57:37;18.48;;;11.85;;
59145;SDS011;44928;53.074;6.646;2024-01-30T03:00:03;17.48;;;11.40;;
59145;SDS011;44928;53.074;6.646;2024-01-30T03:02:31;19.42;;;12.02;;
59145;SDS011;44928;53.074;6.646;2024-01-30T03:04:57;21.23;;;12.23;;
59145;SDS011;44928;53.074;6.646;2024-01-30T03:07:24;17.60;;;10.60;;
59145;SDS011;44928;53.074;6.646;2024-01-30T03:09:50;21.48;;;12.77;;
59145;SDS011;44928;53.074;6.646;2024-01-30T03:12:16;17.40;;;11.90;;
59145;SDS011;44928;53.074;6.646;2024-01-30T03:14:41;17.23;;;11.05;;
59145;SDS011;44928;53.074;6.646;2024-01-30T03:17:07;18.92;;;11.50;;
59145;SDS011;44928;53.074;6.646;2024-01-30T03:19:33;17.98;;;11.25;;
59145;SDS011;44928;53.074;6.646;2024-01-30T03:21:59;17.67;;;11.80;;
59145;SDS011;44928;53.074;6.646;2024-01-30T03:24:25;18.95;;;11.43;;
59145;SDS011;44928;53.074;6.646;2024-01-30T03:26:51;18.40;;;12.23;;
59145;SDS011;44928;53.074;6.646;2024-01-30T03:29:17;21.13;;;13.13;;
59145;SDS011;44928;53.074;6.646;2024-01-30T03:31:43;15.90;;;10.70;;
59145;SDS011;44928;53.074;6.646;2024-01-30T03:34:08;18.23;;;11.25;;
59145;SDS011;44928;53.074;6.646;2024-01-30T03:36:34;17.40;;;11.15;;
59145;SDS011;44928;53.074;6.646;2024-01-30T03:39:00;17.40;;;11.48;;
59145;SDS011;44928;53.074;6.646;2024-01-30T03:41:26;18.52;;;11.93;;
59145;SDS011;44928;53.074;6.646;2024-01-30T03:43:52;15.93;;;11.00;;
59145;SDS011;44928;53.074;6.646;2024-01-30T03:46:18;18.98;;;11.32;;
59145;SDS011;44928;53.074;6.646;2024-01-30T03:48:44;18.15;;;11.00;;
59145;SDS011;44928;53.074;6.646;2024-01-30T03:51:11;18.05;;;12.10;;
59145;SDS011;44928;53.074;6.646;2024-01-30T03:53:42;20.23;;;12.20;;
59145;SDS011;44928;53.074;6.646;2024-01-30T03:56:09;18.17;;;11.18;;
59145;SDS011;44928;53.074;6.646;2024-01-30T03:58:35;16.98;;;10.85;;
59145;SDS011;44928;53.074;6.646;2024-01-30T04:01:01;16.85;;;11.00;;
59145;SDS011;44928;53.074;6.646;2024-01-30T04:03:27;17.25;;;10.65;;
59145;SDS011;44928;53.074;6.646;2024-01-30T04:05:52;16.27;;;10.85;;
59145;SDS011;44928;53.074;6.646;2024-01-30T04:08:19;17.90;;;10.70;;
59145;SDS011;44928;53.074;6.646;2024-01-30T04:10:46;16.35;;;10.68;;
59145;SDS011;44928;53.074;6.646;2024-01-30T04:13:12;16.15;;;9.93;;
59145;SDS011;44928;53.074;6.646;2024-01-30T04:15:38;16.80;;;10.73;;
59145;SDS011;44928;53.074;6.646;2024-01-30T04:18:04;17.95;;;10.65;;
59145;SDS011;44928;53.074;6.646;2024-01-30T04:20:30;15.60;;;10.00;;
59145;SDS011;44928;53.074;6.646;2024-01-30T04:22:56;17.35;;;10.18;;
59145;SDS011;44928;53.074;6.646;2024-01-30T04:25:22;16.63;;;10.55;;
59145;SDS011;44928;53.074;6.646;2024-01-30T04:27:48;16.83;;;10.00;;
59145;SDS011;44928;53.074;6.646;2024-01-30T04:30:14;15.75;;;10.75;;
59145;SDS011;44928;53.074;6.646;2024-01-30T04:32:40;16.50;;;10.10;;
59145;SDS011;44928;53.074;6.646;2024-01-30T04:35:06;17.45;;;10.68;;
59145;SDS011;44928;53.074;6.646;2024-01-30T04:37:32;16.15;;;10.45;;
59145;SDS011;44928;53.074;6.646;2024-01-30T04:39:58;16.83;;;10.40;;
59145;SDS011;44928;53.074;6.646;2024-01-30T04:42:24;15.95;;;10.27;;
59145;SDS011;44928;53.074;6.646;2024-01-30T04:44:50;16.45;;;10.32;;
59145;SDS011;44928;53.074;6.646;2024-01-30T04:47:15;16.45;;;10.15;;
59145;SDS011;44928;53.074;6.646;2024-01-30T04:49:42;16.40;;;9.48;;
59145;SDS011;44928;53.074;6.646;2024-01-30T04:52:08;15.90;;;9.32;;
59145;SDS011;44928;53.074;6.646;2024-01-30T04:54:34;14.55;;;9.27;;
59145;SDS011;44928;53.074;6.646;2024-01-30T04:57:00;14.68;;;9.98;;
59145;SDS011;44928;53.074;6.646;2024-01-30T04:59:27;14.80;;;9.95;;
59145;SDS011;44928;53.074;6.646;2024-01-30T05:01:53;15.57;;;10.13;;
59145;SDS011;44928;53.074;6.646;2024-01-30T05:04:19;16.95;;;9.88;;
59145;SDS011;44928;53.074;6.646;2024-01-30T05:06:44;15.20;;;9.57;;
59145;SDS011;44928;53.074;6.646;2024-01-30T05:09:11;15.65;;;9.52;;
59145;SDS011;44928;53.074;6.646;2024-01-30T05:11:37;14.43;;;9.45;;
59145;SDS011;44928;53.074;6.646;2024-01-30T05:14:04;14.65;;;9.70;;
59145;SDS011;44928;53.074;6.646;2024-01-30T05:16:30;14.55;;;9.23;;
59145;SDS011;44928;53.074;6.646;2024-01-30T05:18:57;16.17;;;9.90;;
59145;SDS011;44928;53.074;6.646;2024-01-30T05:21:23;15.52;;;9.45;;
59145;SDS011;44928;53.074;6.646;2024-01-30T05:23:49;14.57;;;9.60;;
59145;SDS011;44928;53.074;6.646;2024-01-30T05:26:15;15.80;;;9.93;;
59145;SDS011;44928;53.074;6.646;2024-01-30T05:28:41;18.33;;;9.75;;
59145;SDS011;44928;53.074;6.646;2024-01-30T05:31:09;14.30;;;9.25;;
59145;SDS011;44928;53.074;6.646;2024-01-30T05:33:35;14.57;;;9.40;;
59145;SDS011;44928;53.074;6.646;2024-01-30T05:36:01;17.63;;;10.45;;
59145;SDS011;44928;53.074;6.646;2024-01-30T05:38:28;15.60;;;10.30;;
59145;SDS011;44928;53.074;6.646;2024-01-30T05:40:55;17.88;;;10.52;;
59145;SDS011;44928;53.074;6.646;2024-01-30T05:43:23;14.15;;;9.38;;
59145;SDS011;44928;53.074;6.646;2024-01-30T05:45:49;15.68;;;9.30;;
59145;SDS011;44928;53.074;6.646;2024-01-30T05:48:15;14.63;;;9.27;;
59145;SDS011;44928;53.074;6.646;2024-01-30T05:50:41;15.13;;;9.88;;
59145;SDS011;44928;53.074;6.646;2024-01-30T05:53:07;13.95;;;9.10;;
59145;SDS011;44928;53.074;6.646;2024-01-30T05:55:32;18.13;;;10.30;;
59145;SDS011;44928;53.074;6.646;2024-01-30T05:57:58;17.52;;;9.70;;
59145;SDS011;44928;53.074;6.646;2024-01-30T06:00:24;15.55;;;9.98;;
59145;SDS011;44928;53.074;6.646;2024-01-30T06:02:50;14.55;;;9.57;;
59145;SDS011;44928;53.074;6.646;2024-01-30T06:05:16;14.52;;;9.73;;
59145;SDS011;44928;53.074;6.646;2024-01-30T06:07:41;15.35;;;9.15;;
59145;SDS011;44928;53.074;6.646;2024-01-30T06:10:07;14.48;;;9.60;;
59145;SDS011;44928;53.074;6.646;2024-01-30T06:12:34;14.25;;;9.57;;
59145;SDS011;44928;53.074;6.646;2024-01-30T06:15:00;14.60;;;8.25;;
59145;SDS011;44928;53.074;6.646;2024-01-30T06:17:27;15.13;;;9.98;;
59145;SDS011;44928;53.074;6.646;2024-01-30T06:19:53;16.60;;;10.43;;
59145;SDS011;44928;53.074;6.646;2024-01-30T06:22:19;14.25;;;9.25;;
59145;SDS011;44928;53.074;6.646;2024-01-30T06:24:45;14.75;;;9.30;;
59145;SDS011;44928;53.074;6.646;2024-01-30T06:27:14;15.30;;;9.25;;
59145;SDS011;44928;53.074;6.646;2024-01-30T06:29:40;15.70;;;9.25;;
59145;SDS011;44928;53.074;6.646;2024-01-30T06:32:08;13.43;;;8.77;;
59145;SDS011;44928;53.074;6.646;2024-01-30T06:34:34;16.90;;;9.65;;
59145;SDS011;44928;53.074;6.646;2024-01-30T06:36:59;13.63;;;8.77;;
59145;SDS011;44928;53.074;6.646;2024-01-30T06:39:26;14.80;;;9.15;;
59145;SDS011;44928;53.074;6.646;2024-01-30T06:41:52;15.48;;;9.10;;
59145;SDS011;44928;53.074;6.646;2024-01-30T06:44:18;15.18;;;9.20;;
59145;SDS011;44928;53.074;6.646;2024-01-30T06:46:43;17.60;;;10.13;;
59145;SDS011;44928;53.074;6.646;2024-01-30T06:49:09;15.30;;;9.30;;
59145;SDS011;44928;53.074;6.646;2024-01-30T06:51:35;14.20;;;8.70;;
59145;SDS011;44928;53.074;6.646;2024-01-30T06:54:01;15.02;;;9.60;;
59145;SDS011;44928;53.074;6.646;2024-01-30T06:56:27;14.05;;;9.02;;
59145;SDS011;44928;53.074;6.646;2024-01-30T06:58:53;16.00;;;8.98;;
59145;SDS011;44928;53.074;6.646;2024-01-30T07:01:19;14.18;;;9.60;;
59145;SDS011;44928;53.074;6.646;2024-01-30T07:03:45;18.05;;;9.00;;
59145;SDS011;44928;53.074;6.646;2024-01-30T07:06:11;15.27;;;9.05;;
59145;SDS011;44928;53.074;6.646;2024-01-30T07:08:37;14.15;;;9.10;;
59145;SDS011;44928;53.074;6.646;2024-01-30T07:11:04;16.20;;;9.23;;
59145;SDS011;44928;53.074;6.646;2024-01-30T07:13:31;14.95;;;9.13;;
59145;SDS011;44928;53.074;6.646;2024-01-30T07:15:57;16.20;;;9.27;;
59145;SDS011;44928;53.074;6.646;2024-01-30T07:18:23;15.35;;;8.88;;
59145;SDS011;44928;53.074;6.646;2024-01-30T07:20:49;14.00;;;8.38;;
59145;SDS011;44928;53.074;6.646;2024-01-30T07:23:15;15.23;;;8.80;;
59145;SDS011;44928;53.074;6.646;2024-01-30T07:25:46;14.65;;;9.73;;
59145;SDS011;44928;53.074;6.646;2024-01-30T07:28:14;14.63;;;9.05;;
59145;SDS011;44928;53.074;6.646;2024-01-30T07:30:43;15.20;;;9.15;;
59145;SDS011;44928;53.074;6.646;2024-01-30T07:33:09;15.98;;;9.43;;
59145;SDS011;44928;53.074;6.646;2024-01-30T07:35:35;15.30;;;8.73;;
59145;SDS011;44928;53.074;6.646;2024-01-30T07:38:01;13.73;;;9.02;;
59145;SDS011;44928;53.074;6.646;2024-01-30T07:40:27;15.23;;;8.93;;
59145;SDS011;44928;53.074;6.646;2024-01-30T07:42:53;16.90;;;9.52;;
59145;SDS011;44928;53.074;6.646;2024-01-30T07:45:19;15.90;;;9.25;;
59145;SDS011;44928;53.074;6.646;2024-01-30T07:47:50;15.77;;;9.03;;
59145;SDS011;44928;53.074;6.646;2024-01-30T07:50:16;14.65;;;9.68;;
59145;SDS011;44928;53.074;6.646;2024-01-30T07:52:42;14.35;;;9.13;;
59145;SDS011;44928;53.074;6.646;2024-01-30T07:55:09;13.18;;;8.85;;
59145;SDS011;44928;53.074;6.646;2024-01-30T07:57:34;17.27;;;9.88;;
59145;SDS011;44928;53.074;6.646;2024-01-30T08:00:01;14.18;;;8.18;;
59145;SDS011;44928;53.074;6.646;2024-01-30T08:02:28;13.38;;;8.98;;
59145;SDS011;44928;53.074;6.646;2024-01-30T08:04:54;15.20;;;9.55;;
59145;SDS011;44928;53.074;6.646;2024-01-30T08:07:19;13.85;;;9.20;;
59145;SDS011;44928;53.074;6.646;2024-01-30T08:09:47;13.65;;;8.90;;
59145;SDS011;44928;53.074;6.646;2024-01-30T08:12:13;14.05;;;8.43;;
59145;SDS011;44928;53.074;6.646;2024-01-30T08:14:38;16.20;;;9.35;;
59145;SDS011;44928;53.074;6.646;2024-01-30T08:17:06;16.25;;;8.88;;
59145;SDS011;44928;53.074;6.646;2024-01-30T08:19:32;13.70;;;9.27;;
59145;SDS011;44928;53.074;6.646;2024-01-30T08:21:58;16.80;;;9.50;;
59145;SDS011;44928;53.074;6.646;2024-01-30T08:24:24;14.23;;;8.32;;
59145;SDS011;44928;53.074;6.646;2024-01-30T08:26:50;14.98;;;8.77;;
59145;SDS011;44928;53.074;6.646;2024-01-30T08:29:16;15.98;;;9.05;;
59145;SDS011;44928;53.074;6.646;2024-01-30T08:31:42;15.38;;;9.18;;
59145;SDS011;44928;53.074;6.646;2024-01-30T08:34:08;15.15;;;8.80;;
59145;SDS011;44928;53.074;6.646;2024-01-30T08:36:33;14.02;;;8.20;;
59145;SDS011;44928;53.074;6.646;2024-01-30T08:38:59;16.15;;;8.82;;
59145;SDS011;44928;53.074;6.646;2024-01-30T08:41:25;14.52;;;9.07;;
59145;SDS011;44928;53.074;6.646;2024-01-30T08:43:52;13.88;;;9.18;;
59145;SDS011;44928;53.074;6.646;2024-01-30T08:46:18;14.27;;;8.65;;
59145;SDS011;44928;53.074;6.646;2024-01-30T08:48:44;15.38;;;8.50;;
59145;SDS011;44928;53.074;6.646;2024-01-30T08:51:10;15.95;;;8.80;;
59145;SDS011;44928;53.074;6.646;2024-01-30T08:53:36;14.40;;;8.25;;
59145;SDS011;44928;53.074;6.646;2024-01-30T08:56:02;15.13;;;8.40;;
59145;SDS011;44928;53.074;6.646;2024-01-30T08:58:29;16.35;;;8.80;;
59145;SDS011;44928;53.074;6.646;2024-01-30T09:00:54;13.35;;;8.05;;
59145;SDS011;44928;53.074;6.646;2024-01-30T09:03:20;14.07;;;7.97;;
59145;SDS011;44928;53.074;6.646;2024-01-30T09:05:46;15.88;;;8.55;;
59145;SDS011;44928;53.074;6.646;2024-01-30T09:08:12;15.02;;;8.75;;
59145;SDS011;44928;53.074;6.646;2024-01-30T09:10:37;13.48;;;8.40;;
59145;SDS011;44928;53.074;6.646;2024-01-30T09:13:03;14.00;;;8.73;;
59145;SDS011;44928;53.074;6.646;2024-01-30T09:15:29;13.77;;;8.43;;
59145;SDS011;44928;53.074;6.646;2024-01-30T09:17:55;15.25;;;7.78;;
59145;SDS011;44928;53.074;6.646;2024-01-30T09:20:21;12.40;;;7.90;;
59145;SDS011;44928;53.074;6.646;2024-01-30T09:22:48;13.57;;;8.43;;
59145;SDS011;44928;53.074;6.646;2024-01-30T09:25:14;15.95;;;7.43;;
59145;SDS011;44928;53.074;6.646;2024-01-30T09:27:40;12.75;;;7.63;;
59145;SDS011;44928;53.074;6.646;2024-01-30T09:30:06;13.57;;;8.13;;
59145;SDS011;44928;53.074;6.646;2024-01-30T09:32:32;14.20;;;7.88;;
59145;SDS011;44928;53.074;6.646;2024-01-30T09:34:58;12.70;;;7.70;;
59145;SDS011;44928;53.074;6.646;2024-01-30T09:37:24;13.60;;;7.80;;
59145;SDS011;44928;53.074;6.646;2024-01-30T09:39:50;14.73;;;7.47;;
59145;SDS011;44928;53.074;6.646;2024-01-30T09:42:29;13.48;;;8.27;;
59145;SDS011;44928;53.074;6.646;2024-01-30T09:45:02;13.35;;;7.47;;
59145;SDS011;44928;53.074;6.646;2024-01-30T09:47:39;12.90;;;7.53;;
59145;SDS011;44928;53.074;6.646;2024-01-30T09:50:10;15.10;;;8.52;;
59145;SDS011;44928;53.074;6.646;2024-01-30T09:52:37;13.73;;;7.65;;
59145;SDS011;44928;53.074;6.646;2024-01-30T09:55:04;14.48;;;8.10;;
59145;SDS011;44928;53.074;6.646;2024-01-30T09:57:30;14.38;;;7.82;;
59145;SDS011;44928;53.074;6.646;2024-01-30T09:59:56;12.85;;;7.65;;
59145;SDS011;44928;53.074;6.646;2024-01-30T10:02:22;14.52;;;7.57;;
59145;SDS011;44928;53.074;6.646;2024-01-30T10:04:49;13.60;;;8.25;;
59145;SDS011;44928;53.074;6.646;2024-01-30T10:07:16;13.25;;;7.82;;
59145;SDS011;44928;53.074;6.646;2024-01-30T10:09:42;13.65;;;8.50;;
59145;SDS011;44928;53.074;6.646;2024-01-30T10:12:08;14.70;;;8.65;;
59145;SDS011;44928;53.074;6.646;2024-01-30T10:14:38;14.57;;;9.02;;
59145;SDS011;44928;53.074;6.646;2024-01-30T10:17:04;14.93;;;9.35;;
59145;SDS011;44928;53.074;6.646;2024-01-30T10:19:31;16.48;;;10.02;;
59145;SDS011;44928;53.074;6.646;2024-01-30T10:21:57;15.52;;;10.88;;
59145;SDS011;44928;53.074;6.646;2024-01-30T10:24:25;14.90;;;10.00;;
59145;SDS011;44928;53.074;6.646;2024-01-30T10:26:54;17.25;;;8.95;;
59145;SDS011;44928;53.074;6.646;2024-01-30T10:29:20;14.63;;;9.18;;
59145;SDS011;44928;53.074;6.646;2024-01-30T10:31:57;16.83;;;9.23;;
59145;SDS011;44928;53.074;6.646;2024-01-30T10:34:25;15.40;;;8.52;;
59145;SDS011;44928;53.074;6.646;2024-01-30T10:36:53;15.07;;;8.73;;
59145;SDS011;44928;53.074;6.646;2024-01-30T10:39:41;14.55;;;9.73;;
59145;SDS011;44928;53.074;6.646;2024-01-30T10:42:11;17.35;;;8.30;;
59145;SDS011;44928;53.074;6.646;2024-01-30T10:47:27;12.90;;;7.82;;
59145;SDS011;44928;53.074;6.646;2024-01-30T10:49:54;13.18;;;8.07;;
59145;SDS011;44928;53.074;6.646;2024-01-30T10:52:21;13.98;;;8.15;;
59145;SDS011;44928;53.074;6.646;2024-01-30T10:54:50;12.77;;;7.68;;
59145;SDS011;44928;53.074;6.646;2024-01-30T10:57:17;15.85;;;8.02;;
59145;SDS011;44928;53.074;6.646;2024-01-30T10:59:43;13.95;;;7.72;;
59145;SDS011;44928;53.074;6.646;2024-01-30T11:02:12;13.88;;;8.20;;
59145;SDS011;44928;53.074;6.646;2024-01-30T11:04:42;13.18;;;7.30;;
59145;SDS011;44928;53.074;6.646;2024-01-30T11:07:15;14.60;;;8.23;;
59145;SDS011;44928;53.074;6.646;2024-01-30T11:09:48;16.88;;;7.93;;
59145;SDS011;44928;53.074;6.646;2024-01-30T11:12:21;16.10;;;8.32;;
59145;SDS011;44928;53.074;6.646;2024-01-30T11:14:49;12.90;;;7.72;;
59145;SDS011;44928;53.074;6.646;2024-01-30T11:17:15;13.32;;;8.07;;
59145;SDS011;44928;53.074;6.646;2024-01-30T11:19:41;13.50;;;8.63;;
59145;SDS011;44928;53.074;6.646;2024-01-30T11:22:10;15.00;;;8.25;;
59145;SDS011;44928;53.074;6.646;2024-01-30T11:24:39;16.33;;;9.00;;
59145;SDS011;44928;53.074;6.646;2024-01-30T11:27:09;15.00;;;8.25;;
59145;SDS011;44928;53.074;6.646;2024-01-30T11:29:38;15.10;;;8.25;;
59145;SDS011;44928;53.074;6.646;2024-01-30T11:32:05;13.70;;;8.43;;
59145;SDS011;44928;53.074;6.646;2024-01-30T11:34:32;13.13;;;7.78;;
59145;SDS011;44928;53.074;6.646;2024-01-30T11:37:03;15.82;;;8.40;;
59145;SDS011;44928;53.074;6.646;2024-01-30T11:39:34;14.63;;;8.13;;
59145;SDS011;44928;53.074;6.646;2024-01-30T11:42:01;14.40;;;8.32;;
59145;SDS011;44928;53.074;6.646;2024-01-30T11:44:30;16.27;;;8.73;;
59145;SDS011;44928;53.074;6.646;2024-01-30T11:46:56;13.68;;;9.10;;
59145;SDS011;44928;53.074;6.646;2024-01-30T11:49:22;16.83;;;9.02;;
59145;SDS011;44928;53.074;6.646;2024-01-30T11:51:48;18.00;;;9.77;;
59145;SDS011;44928;53.074;6.646;2024-01-30T11:54:17;17.35;;;9.32;;
59145;SDS011;44928;53.074;6.646;2024-01-30T11:56:43;15.27;;;8.98;;
59145;SDS011;44928;53.074;6.646;2024-01-30T11:59:09;14.63;;;7.40;;
59145;SDS011;44928;53.074;6.646;2024-01-30T12:01:35;16.30;;;7.70;;
59145;SDS011;44928;53.074;6.646;2024-01-30T12:04:01;16.85;;;5.68;;
59145;SDS011;44928;53.074;6.646;2024-01-30T12:06:28;15.02;;;5.55;;
59145;SDS011;44928;53.074;6.646;2024-01-30T12:11:24;11.63;;;4.25;;
59145;SDS011;44928;53.074;6.646;2024-01-30T12:13:50;16.13;;;5.10;;
59145;SDS011;44928;53.074;6.646;2024-01-30T12:16:17;17.90;;;5.43;;
59145;SDS011;44928;53.074;6.646;2024-01-30T12:18:43;12.52;;;4.47;;
59145;SDS011;44928;53.074;6.646;2024-01-30T12:21:09;14.05;;;5.00;;
59145;SDS011;44928;53.074;6.646;2024-01-30T12:23:35;14.52;;;4.00;;
59145;SDS011;44928;53.074;6.646;2024-01-30T12:26:01;10.98;;;3.67;;
59145;SDS011;44928;53.074;6.646;2024-01-30T12:28:32;12.32;;;3.88;;
59145;SDS011;44928;53.074;6.646;2024-01-30T12:31:03;11.30;;;3.53;;
59145;SDS011;44928;53.074;6.646;2024-01-30T12:33:29;12.00;;;3.97;;
59145;SDS011;44928;53.074;6.646;2024-01-30T12:35:56;13.30;;;3.50;;
59145;SDS011;44928;53.074;6.646;2024-01-30T12:38:26;9.43;;;3.25;;
59145;SDS011;44928;53.074;6.646;2024-01-30T12:40:55;11.82;;;2.88;;
59145;SDS011;44928;53.074;6.646;2024-01-30T12:43:22;10.43;;;2.30;;
59145;SDS011;44928;53.074;6.646;2024-01-30T12:45:49;7.18;;;2.60;;
59145;SDS011;44928;53.074;6.646;2024-01-30T12:48:15;8.32;;;1.90;;
59145;SDS011;44928;53.074;6.646;2024-01-30T12:50:41;6.18;;;1.88;;
59145;SDS011;44928;53.074;6.646;2024-01-30T12:53:07;6.15;;;1.70;;
59145;SDS011;44928;53.074;6.646;2024-01-30T12:55:34;4.70;;;1.40;;
59145;SDS011;44928;53.074;6.646;2024-01-30T12:58:00;7.95;;;1.50;;
59145;SDS011;44928;53.074;6.646;2024-01-30T13:00:26;5.45;;;1.30;;
59145;SDS011;44928;53.074;6.646;2024-01-30T13:02:52;3.40;;;1.00;;
59145;SDS011;44928;53.074;6.646;2024-01-30T13:05:18;3.85;;;0.95;;
59145;SDS011;44928;53.074;6.646;2024-01-30T13:07:44;5.82;;;1.23;;
59145;SDS011;44928;53.074;6.646;2024-01-30T13:10:09;5.32;;;1.30;;
59145;SDS011;44928;53.074;6.646;2024-01-30T13:12:35;4.20;;;0.90;;
59145;SDS011;44928;53.074;6.646;2024-01-30T13:15:02;3.25;;;0.88;;
59145;SDS011;44928;53.074;6.646;2024-01-30T13:17:30;3.40;;;0.80;;
59145;SDS011;44928;53.074;6.646;2024-01-30T13:19:56;2.58;;;0.75;;
59145;SDS011;44928;53.074;6.646;2024-01-30T13:22:21;3.65;;;0.88;;
59145;SDS011;44928;53.074;6.646;2024-01-30T13:24:48;4.72;;;1.38;;
59145;SDS011;44928;53.074;6.646;2024-01-30T13:27:14;2.25;;;0.73;;
59145;SDS011;44928;53.074;6.646;2024-01-30T13:29:40;2.50;;;0.55;;
59145;SDS011;44928;53.074;6.646;2024-01-30T13:32:05;2.60;;;0.70;;
59145;SDS011;44928;53.074;6.646;2024-01-30T13:34:31;3.28;;;0.82;;
59145;SDS011;44928;53.074;6.646;2024-01-30T13:36:57;2.20;;;0.70;;
59145;SDS011;44928;53.074;6.646;2024-01-30T13:39:23;2.72;;;0.70;;
59145;SDS011;44928;53.074;6.646;2024-01-30T13:41:49;3.35;;;0.80;;
59145;SDS011;44928;53.074;6.646;2024-01-30T13:44:15;3.00;;;0.80;;
59145;SDS011;44928;53.074;6.646;2024-01-30T13:46:44;3.25;;;0.70;;
59145;SDS011;44928;53.074;6.646;2024-01-30T13:49:11;3.17;;;0.80;;
59145;SDS011;44928;53.074;6.646;2024-01-30T13:51:37;1.27;;;0.52;;
59145;SDS011;44928;53.074;6.646;2024-01-30T13:54:02;2.38;;;0.55;;
59145;SDS011;44928;53.074;6.646;2024-01-30T13:56:28;3.10;;;0.80;;
59145;SDS011;44928;53.074;6.646;2024-01-30T13:58:55;2.08;;;1.10;;
59145;SDS011;44928;53.074;6.646;2024-01-30T14:01:22;3.10;;;0.82;;
59145;SDS011;44928;53.074;6.646;2024-01-30T14:03:48;3.83;;;0.82;;
59145;SDS011;44928;53.074;6.646;2024-01-30T14:06:14;2.20;;;0.68;;
59145;SDS011;44928;53.074;6.646;2024-01-30T14:08:40;3.38;;;0.70;;
59145;SDS011;44928;53.074;6.646;2024-01-30T14:11:05;3.65;;;0.98;;
59145;SDS011;44928;53.074;6.646;2024-01-30T14:13:32;1.90;;;0.70;;
59145;SDS011;44928;53.074;6.646;2024-01-30T14:15:58;5.38;;;1.00;;
59145;SDS011;44928;53.074;6.646;2024-01-30T14:18:24;3.53;;;0.90;;
59145;SDS011;44928;53.074;6.646;2024-01-30T14:20:50;3.30;;;0.90;;
59145;SDS011;44928;53.074;6.646;2024-01-30T14:23:17;3.92;;;0.80;;
59145;SDS011;44928;53.074;6.646;2024-01-30T14:25:43;3.08;;;0.85;;
59145;SDS011;44928;53.074;6.646;2024-01-30T14:28:09;3.65;;;1.20;;
59145;SDS011;44928;53.074;6.646;2024-01-30T14:30:35;2.25;;;0.80;;
59145;SDS011;44928;53.074;6.646;2024-01-30T14:33:01;5.15;;;1.13;;